Time;durP1;ratioP1;P1;durP2;ratioP2;P2;SDS_P1;SDS_P2;PMS_P1;PMS_P2;Temp;Humidity;BMP_temperature;BMP_pressure;BME280_temperature;BME280_humidity;BME280_pressure;Samples;Min_cycle;Max_cycle;Signal;HPM_P1;HPM_P2
2021/12/04 06:59:30;;;;;;;2.00;1.60;;;;;;;;;;5071487;28;20376;-78
2021/12/04 07:01:55;;;;;;;17.40;2.90;;;;;;;;;;5070991;28;20063;-79
2021/12/04 07:04:21;;;;;;;2.40;1.92;;;;;;;;;;5070739;28;20025;-78
2021/12/04 07:06:48;;;;;;;5.68;2.80;;;;;;;;;;5069684;28;20523;-77
2021/12/04 07:09:14;;;;;;;3.53;2.65;;;;;;;;;;5036592;28;20108;-80
2021/12/04 07:11:40;;;;;;;2.38;2.03;;;;;;;;;;5053815;28;20024;-78
2021/12/04 07:14:08;;;;;;;4.10;2.53;;;;;;;;;;5067561;28;20037;-79
2021/12/04 07:16:33;;;;;;;5.13;2.20;;;;;;;;;;5069897;28;20471;-77
2021/12/04 07:18:59;;;;;;;3.50;2.70;;;;;;;;;;5069681;28;20103;-78
2021/12/04 07:21:24;;;;;;;6.82;2.20;;;;;;;;;;5069158;28;20079;-80
2021/12/04 07:23:50;;;;;;;3.13;2.15;;;;;;;;;;5069327;28;20077;-80
2021/12/04 07:26:17;;;;;;;2.03;1.73;;;;;;;;;;5069343;28;20060;-80
2021/12/04 07:28:43;;;;;;;4.10;1.80;;;;;;;;;;5070467;28;20024;-79
2021/12/04 07:31:08;;;;;;;4.55;2.25;;;;;;;;;;5070286;28;20388;-81
2021/12/04 07:33:34;;;;;;;2.65;1.75;;;;;;;;;;5068988;28;20082;-79
2021/12/04 07:36:00;;;;;;;6.40;1.80;;;;;;;;;;5035590;28;20029;-80
2021/12/04 07:38:26;;;;;;;5.55;2.55;;;;;;;;;;5070238;28;20031;-79
2021/12/04 07:40:52;;;;;;;5.18;2.03;;;;;;;;;;5070193;28;20119;-79
2021/12/04 07:43:17;;;;;;;4.55;2.45;;;;;;;;;;5052484;28;20067;-80
2021/12/04 07:45:43;;;;;;;2.42;1.98;;;;;;;;;;5070073;28;20086;-81
2021/12/04 07:48:08;;;;;;;4.32;2.38;;;;;;;;;;5069726;28;20029;-80
2021/12/04 07:50:35;;;;;;;3.50;2.00;;;;;;;;;;5069777;28;20033;-80
2021/12/04 07:53:02;;;;;;;6.60;2.50;;;;;;;;;;5068927;28;20136;-80
2021/12/04 07:55:28;;;;;;;5.63;2.78;;;;;;;;;;5068638;28;20035;-81
2021/12/04 07:57:53;;;;;;;6.80;2.38;;;;;;;;;;5068051;28;20045;-80
2021/12/04 08:00:20;;;;;;;4.43;2.53;;;;;;;;;;5069419;28;20028;-80
2021/12/04 08:02:47;;;;;;;4.57;2.47;;;;;;;;;;5068439;28;20043;-80
2021/12/04 08:05:13;;;;;;;4.25;2.88;;;;;;;;;;5068125;28;20048;-80
2021/12/04 08:07:39;;;;;;;2.45;2.05;;;;;;;;;;5068410;28;20521;-80
2021/12/04 08:10:07;;;;;;;2.90;2.10;;;;;;;;;;5060102;28;20028;-81
2021/12/04 08:12:32;;;;;;;6.53;3.95;;;;;;;;;;5056460;28;20044;-82
2021/12/04 08:14:57;;;;;;;5.07;3.72;;;;;;;;;;5056136;28;20082;-80
2021/12/04 08:17:25;;;;;;;3.92;2.40;;;;;;;;;;5056109;28;20044;-86
2021/12/04 08:19:50;;;;;;;5.07;2.75;;;;;;;;;;5056393;28;20158;-82
2021/12/04 08:22:16;;;;;;;4.90;2.63;;;;;;;;;;5054720;28;20437;-81
2021/12/04 08:24:42;;;;;;;6.00;2.33;;;;;;;;;;5056672;28;20025;-83
2021/12/04 08:27:09;;;;;;;4.53;2.72;;;;;;;;;;5038638;28;20400;-83
2021/12/04 08:29:35;;;;;;;8.48;3.10;;;;;;;;;;5056263;28;20029;-83
2021/12/04 08:32:00;;;;;;;5.82;4.40;;;;;;;;;;5054720;28;20094;-83
2021/12/04 08:34:26;;;;;;;6.22;2.60;;;;;;;;;;5055772;28;20045;-83
2021/12/04 08:36:52;;;;;;;4.30;2.50;;;;;;;;;;5021456;28;20399;-83
2021/12/04 08:39:18;;;;;;;6.35;3.50;;;;;;;;;;5055947;28;20025;-82
2021/12/04 08:41:44;;;;;;;3.80;2.55;;;;;;;;;;5054478;28;20468;-83
2021/12/04 08:44:09;;;;;;;6.47;3.35;;;;;;;;;;5055159;28;20036;-83
2021/12/04 08:46:37;;;;;;;8.95;3.85;;;;;;;;;;5054340;28;20542;-83
2021/12/04 08:49:04;;;;;;;5.95;3.28;;;;;;;;;;5054561;28;20017;-83
2021/12/04 08:51:30;;;;;;;4.80;3.20;;;;;;;;;;5055521;28;20025;-82
2021/12/04 08:53:55;;;;;;;6.05;4.15;;;;;;;;;;5037620;28;20056;-82
2021/12/04 08:56:21;;;;;;;7.85;4.10;;;;;;;;;;5037757;28;20103;-82
2021/12/04 08:58:47;;;;;;;5.32;2.83;;;;;;;;;;5055043;28;20140;-83
2021/12/04 09:01:22;;;;;;;4.85;2.70;;;;;;;;;;5054652;28;20104;-83
2021/12/04 09:03:47;;;;;;;5.63;3.42;;;;;;;;;;5038346;28;20399;-83
2021/12/04 09:06:14;;;;;;;4.97;3.00;;;;;;;;;;5055897;28;20021;-83
2021/12/04 09:08:39;;;;;;;4.07;2.53;;;;;;;;;;5054063;28;20025;-83
2021/12/04 09:11:15;;;;;;;4.70;2.90;;;;;;;;;;5055492;28;20084;-83
2021/12/04 09:13:42;;;;;;;4.22;2.40;;;;;;;;;;5054192;28;20491;-83
2021/12/04 09:16:08;;;;;;;4.90;2.00;;;;;;;;;;5054021;28;20033;-83
2021/12/04 09:18:35;;;;;;;4.45;2.72;;;;;;;;;;5055114;28;20523;-81
2021/12/04 09:21:01;;;;;;;5.55;3.40;;;;;;;;;;5054425;28;20029;-85
2021/12/04 09:23:33;;;;;;;7.32;3.55;;;;;;;;;;5053853;28;20029;-83
2021/12/04 09:26:02;;;;;;;5.03;2.63;;;;;;;;;;5054029;28;20033;-82
2021/12/04 09:28:39;;;;;;;4.32;2.22;;;;;;;;;;5038003;28;20040;-83
2021/12/04 09:31:55;;;;;;;5.07;2.92;;;;;;;;;;5038622;28;20033;-83
2021/12/04 10:11:15;;;;;;;6.32;3.47;;;;;;;;;;5055266;28;20052;-81
2021/12/04 10:12:53;;;;;;;9.75;4.00;;;;;;;;;;5039406;28;20515;-81
2021/12/04 10:18:20;;;;;;;6.93;3.90;;;;;;;;;;5053933;28;20033;-81
2021/12/04 10:34:30;;;;;;;13.98;3.95;;;;;;;;;;5052525;28;20506;-85
2021/12/04 10:37:07;;;;;;;7.45;4.55;;;;;;;;;;5052526;28;20075;-82
2021/12/04 10:39:33;;;;;;;7.50;3.95;;;;;;;;;;5054086;28;20033;-83
2021/12/04 10:42:02;;;;;;;6.93;3.60;;;;;;;;;;5052576;28;20414;-82
2021/12/04 10:44:27;;;;;;;6.07;3.60;;;;;;;;;;5053121;28;20391;-82
2021/12/04 10:47:02;;;;;;;8.45;4.15;;;;;;;;;;5053821;28;20029;-82
2021/12/04 10:49:43;;;;;;;6.95;3.72;;;;;;;;;;5054192;28;20031;-81
2021/12/04 10:55:53;;;;;;;7.32;4.40;;;;;;;;;;5053537;28;20033;-80
2021/12/04 11:06:51;;;;;;;10.60;3.90;;;;;;;;;;5052530;28;20033;-81
2021/12/04 11:29:03;;;;;;;6.32;3.72;;;;;;;;;;5053363;28;20033;-82
2021/12/04 11:45:09;;;;;;;7.28;4.03;;;;;;;;;;5053147;28;20033;-79
2021/12/04 11:47:37;;;;;;;10.48;3.28;;;;;;;;;;5056603;28;20112;-79
2021/12/04 11:50:32;;;;;;;5.28;3.35;;;;;;;;;;5055281;28;20029;-78
2021/12/04 11:53:01;;;;;;;7.82;2.88;;;;;;;;;;5056279;28;20048;-79
2021/12/04 11:55:31;;;;;;;7.43;3.28;;;;;;;;;;5056698;28;20078;-79
2021/12/04 11:57:57;;;;;;;5.90;3.67;;;;;;;;;;5056050;28;20124;-79
2021/12/04 12:00:32;;;;;;;9.35;3.45;;;;;;;;;;5055338;28;20029;-80
2021/12/04 12:03:19;;;;;;;7.68;3.70;;;;;;;;;;5056352;28;20029;-80
2021/12/04 12:05:51;;;;;;;9.55;4.07;;;;;;;;;;5056453;28;20021;-80
2021/12/04 12:08:21;;;;;;;6.68;3.17;;;;;;;;;;5055376;28;20078;-80
2021/12/04 12:10:50;;;;;;;5.53;3.15;;;;;;;;;;5055267;28;20029;-80
2021/12/04 12:13:25;;;;;;;6.82;3.58;;;;;;;;;;5055284;28;20033;-79
2021/12/04 12:16:18;;;;;;;12.27;3.05;;;;;;;;;;5057868;28;20031;-80
2021/12/04 12:18:49;;;;;;;6.72;3.13;;;;;;;;;;5056081;28;20070;-78
2021/12/04 12:21:17;;;;;;;3.88;2.85;;;;;;;;;;5058260;28;20108;-78
2021/12/04 12:27:00;;;;;;;8.13;2.90;;;;;;;;;;5054962;28;20063;-80
2021/12/04 12:38:07;;;;;;;5.30;3.05;;;;;;;;;;5055507;28;20044;-80
2021/12/04 12:40:33;;;;;;;5.68;3.22;;;;;;;;;;5054628;28;20024;-80
2021/12/04 12:43:09;;;;;;;5.38;2.70;;;;;;;;;;5054180;28;20116;-80
2021/12/04 12:45:35;;;;;;;6.45;3.03;;;;;;;;;;5037601;28;20025;-80
2021/12/04 12:48:09;;;;;;;5.68;2.70;;;;;;;;;;5054007;28;20036;-80
2021/12/04 12:50:37;;;;;;;5.18;2.58;;;;;;;;;;5054199;28;20059;-80
2021/12/04 12:53:07;;;;;;;5.30;2.80;;;;;;;;;;5055541;28;20048;-80
2021/12/04 12:55:35;;;;;;;4.50;2.72;;;;;;;;;;5053794;28;20097;-80
2021/12/04 12:58:23;;;;;;;5.22;3.08;;;;;;;;;;5054897;28;20045;-80
2021/12/04 13:12:10;;;;;;;10.23;4.18;;;;;;;;;;5054404;28;20522;-78
2021/12/04 13:14:41;;;;;;;3.72;2.70;;;;;;;;;;5056401;28;20029;-78
2021/12/04 13:17:09;;;;;;;4.40;2.83;;;;;;;;;;5056607;28;20039;-80
2021/12/04 13:19:37;;;;;;;3.85;3.10;;;;;;;;;;5055641;28;20035;-77
2021/12/04 13:22:07;;;;;;;4.07;2.47;;;;;;;;;;5053657;28;20027;-79
2021/12/04 13:24:36;;;;;;;5.57;2.95;;;;;;;;;;5054951;28;20029;-78
2021/12/04 13:29:42;;;;;;;5.47;3.53;;;;;;;;;;5054682;28;20052;-78
2021/12/04 13:32:10;;;;;;;7.20;2.92;;;;;;;;;;5054780;28;20520;-78
2021/12/04 13:34:37;;;;;;;7.32;2.67;;;;;;;;;;5053337;28;20037;-79
2021/12/04 13:37:03;;;;;;;5.88;2.72;;;;;;;;;;5054731;28;20495;-78
2021/12/04 13:39:29;;;;;;;4.90;2.83;;;;;;;;;;5053276;28;20382;-78
2021/12/04 13:41:55;;;;;;;2.40;2.20;;;;;;;;;;5054412;28;20092;-78
2021/12/04 13:44:23;;;;;;;4.07;2.70;;;;;;;;;;5054737;28;20029;-79
2021/12/04 13:46:55;;;;;;;4.30;2.45;;;;;;;;;;5053082;28;20035;-78
2021/12/04 13:49:25;;;;;;;3.10;2.38;;;;;;;;;;5052911;28;20047;-78
2021/12/04 13:51:56;;;;;;;4.05;2.15;;;;;;;;;;5054466;28;20104;-78
2021/12/04 13:54:24;;;;;;;2.15;1.92;;;;;;;;;;5054530;28;20036;-79
2021/12/04 13:56:49;;;;;;;2.90;2.22;;;;;;;;;;5054087;28;20108;-79
2021/12/04 13:59:24;;;;;;;5.22;2.38;;;;;;;;;;5053705;28;20148;-79
2021/12/04 14:01:50;;;;;;;2.83;2.03;;;;;;;;;;5053265;28;20098;-79
2021/12/04 14:04:19;;;;;;;4.05;2.30;;;;;;;;;;5052701;28;20024;-79
2021/12/04 14:06:50;;;;;;;7.38;2.50;;;;;;;;;;5053945;28;20033;-80
2021/12/04 14:09:16;;;;;;;3.45;2.28;;;;;;;;;;5053179;28;20013;-80
2021/12/04 14:11:42;;;;;;;4.05;2.15;;;;;;;;;;5052992;28;20123;-79
2021/12/04 14:14:17;;;;;;;2.70;1.95;;;;;;;;;;5053317;28;20037;-80
2021/12/04 14:16:45;;;;;;;3.55;2.40;;;;;;;;;;5053144;28;20032;-79
2021/12/04 14:19:16;;;;;;;5.75;2.35;;;;;;;;;;5053738;28;20033;-79
2021/12/04 14:21:50;;;;;;;4.38;2.72;;;;;;;;;;5052819;28;20028;-79
2021/12/04 14:24:24;;;;;;;4.00;2.53;;;;;;;;;;5052357;28;20036;-79
2021/12/04 14:26:55;;;;;;;4.13;2.40;;;;;;;;;;5035708;28;20476;-79
2021/12/04 14:29:20;;;;;;;3.95;2.60;;;;;;;;;;5052906;28;20060;-80
2021/12/04 14:31:47;;;;;;;2.90;2.30;;;;;;;;;;5053717;28;20113;-79
2021/12/04 14:34:24;;;;;;;7.07;2.30;;;;;;;;;;5053632;28;20602;-79
2021/12/04 14:37:12;;;;;;;3.13;2.10;;;;;;;;;;5053816;28;20103;-79
2021/12/04 14:39:43;;;;;;;4.40;2.25;;;;;;;;;;5052145;28;20025;-79
2021/12/04 14:42:17;;;;;;;2.80;1.80;;;;;;;;;;5052290;28;20025;-79
2021/12/04 14:44:48;;;;;;;2.72;2.10;;;;;;;;;;5052446;28;20037;-79
2021/12/04 14:47:13;;;;;;;4.07;2.75;;;;;;;;;;5053532;28;20036;-80
2021/12/04 14:49:42;;;;;;;3.00;2.40;;;;;;;;;;5035394;28;20033;-79
2021/12/04 14:52:08;;;;;;;4.10;2.58;;;;;;;;;;5052251;28;20060;-79
2021/12/04 14:54:36;;;;;;;3.97;2.00;;;;;;;;;;5053141;28;20097;-80
2021/12/04 14:57:02;;;;;;;2.75;2.03;;;;;;;;;;5053289;28;20037;-79
2021/12/04 14:59:32;;;;;;;6.30;2.00;;;;;;;;;;5034961;28;20408;-78
2021/12/04 15:01:59;;;;;;;5.70;2.80;;;;;;;;;;5053568;28;20083;-77
2021/12/04 15:04:24;;;;;;;8.48;3.63;;;;;;;;;;5053699;28;20028;-78
2021/12/04 15:06:50;;;;;;;7.43;3.10;;;;;;;;;;5053483;28;20037;-80
2021/12/04 15:09:16;;;;;;;6.32;2.85;;;;;;;;;;5053455;28;20029;-81
2021/12/04 15:11:47;;;;;;;9.77;2.92;;;;;;;;;;5053885;28;20029;-81
2021/12/04 15:14:20;;;;;;;6.55;2.60;;;;;;;;;;5053458;28;20079;-80
2021/12/04 15:16:52;;;;;;;6.32;3.45;;;;;;;;;;5054565;28;20108;-80
2021/12/04 15:19:21;;;;;;;10.27;3.10;;;;;;;;;;5053033;28;20086;-81
2021/12/04 15:21:52;;;;;;;5.82;3.13;;;;;;;;;;5057190;28;20048;-80
2021/12/04 15:24:23;;;;;;;6.80;3.40;;;;;;;;;;5058263;28;20032;-81
2021/12/04 15:26:51;;;;;;;8.18;2.80;;;;;;;;;;5058122;28;20029;-84
2021/12/04 15:29:19;;;;;;;10.82;3.17;;;;;;;;;;5055986;28;20037;-85
